Time;durP1;ratioP1;P1;durP2;ratioP2;P2;SDS_P1;SDS_P2;PMS_P1;PMS_P2;Temp;Humidity;BMP_temperature;BMP_pressure;BME280_temperature;BME280_humidity;BME280_pressure;Samples;Min_cycle;Max_cycle;Signal;HPM_P1;HPM_P2
2022/05/05 00:00:09;;;;;;;;;14.00;13.00;;;;;15.68;55.54;101363.91;6303426;22;45966;-76
2022/05/05 00:02:35;;;;;;;;;12.00;11.50;;;;;15.67;55.56;101377.22;6275293;22;46445;-76
2022/05/05 00:08:22;;;;;;;;;14.00;13.00;;;;;15.61;55.39;101364.50;6297083;22;45622;-76
2022/05/05 00:16:17;;;;;;;;;12.50;11.25;;;;;15.56;55.30;101374.59;6303639;22;45586;-77
2022/05/05 00:18:42;;;;;;;;;13.75;13.00;;;;;15.47;55.40;101374.34;6302747;22;45763;-76
2022/05/05 00:21:08;;;;;;;;;13.25;10.50;;;;;15.47;56.11;101376.16;6303062;22;45755;-76
2022/05/05 00:23:33;;;;;;;;;14.25;13.50;;;;;15.42;55.95;101376.53;6302761;22;47131;-76
2022/05/05 00:25:58;;;;;;;;;12.25;11.75;;;;;15.39;56.07;101376.75;6303909;22;46059;-77
2022/05/05 00:28:24;;;;;;;;;14.75;13.00;;;;;15.36;56.07;101382.28;6304060;22;45594;-77
2022/05/05 00:30:49;;;;;;;;;14.25;11.50;;;;;15.32;56.05;101380.84;6304020;22;45505;-76
2022/05/05 00:33:14;;;;;;;;;18.00;15.50;;;;;15.27;56.15;101390.94;6303741;22;46606;-76
2022/05/05 00:39:03;;;;;;;;;11.00;9.50;;;;;15.18;56.34;101377.59;6303680;22;45625;-77
2022/05/05 00:41:34;;;;;;;;;13.75;13.00;;;;;15.12;56.53;101374.47;6303555;22;45745;-76
2022/05/05 00:44:00;;;;;;;;;15.00;13.50;;;;;15.09;56.79;101373.88;6302917;22;47476;-76
2022/05/05 00:46:25;;;;;;;;;14.50;13.00;;;;;15.03;56.87;101377.84;6303898;22;46224;-76
2022/05/05 00:48:51;;;;;;;;;12.50;12.25;;;;;15.00;57.06;101375.44;6303951;22;45465;-76
2022/05/05 00:51:16;;;;;;;;;13.00;11.50;;;;;14.94;57.17;101377.72;6304194;22;45537;-76
2022/05/05 00:53:42;;;;;;;;;15.00;12.50;;;;;14.92;57.31;101384.91;6303375;22;45455;-78
2022/05/05 00:56:11;;;;;;;;;13.50;12.50;;;;;14.87;57.17;101372.06;6304012;22;45521;-77
2022/05/05 00:58:38;;;;;;;;;15.50;13.75;;;;;14.81;56.81;101376.97;6303058;22;45821;-77
2022/05/05 01:01:04;;;;;;;;;13.00;11.75;;;;;14.80;57.22;101372.63;6302863;22;45660;-76
2022/05/05 01:10:26;;;;;;;;;10.75;10.00;;;;;14.63;56.92;101382.66;6303795;22;45454;-77
2022/05/05 01:12:52;;;;;;;;;11.25;10.75;;;;;14.59;57.08;101388.28;6303149;22;45449;-76
2022/05/05 01:15:19;;;;;;;;;14.00;12.00;;;;;14.53;57.57;101386.97;6303322;22;45646;-77
2022/05/05 01:17:44;;;;;;;;;11.75;10.75;;;;;14.50;57.13;101392.47;6302828;22;46215;-77
2022/05/05 01:23:31;;;;;;;;;13.50;11.75;;;;;14.42;57.56;101380.81;6303199;22;45461;-76
2022/05/05 01:28:45;;;;;;;;;14.25;11.50;;;;;14.41;57.90;101387.06;6303164;22;45961;-77
2022/05/05 01:31:11;;;;;;;;;11.00;10.00;;;;;14.35;57.56;101375.16;6302810;22;45675;-76
2022/05/05 01:33:37;;;;;;;;;12.25;11.00;;;;;14.36;57.51;101378.63;6275222;22;45928;-76
2022/05/05 01:39:24;;;;;;;;;11.00;10.75;;;;;14.31;57.44;101371.03;6303190;22;45771;-78
2022/05/05 01:41:50;;;;;;;;;7.25;7.25;;;;;14.28;58.05;101368.63;6303464;22;45532;-76
2022/05/05 01:44:15;;;;;;;;;9.00;6.75;;;;;14.26;57.52;101376.66;6277360;22;45669;-77
2022/05/05 01:46:41;;;;;;;;;9.00;7.50;;;;;14.22;57.84;101374.34;6307147;22;46648;-77
2022/05/05 01:49:06;;;;;;;;;10.75;9.00;;;;;14.15;58.11;101371.31;6279740;22;47007;-77
2022/05/05 01:51:32;;;;;;;;;14.00;10.00;;;;;14.15;57.94;101383.66;6307929;22;45539;-78
2022/05/05 01:53:57;;;;;;;;;6.75;6.75;;;;;14.14;57.92;101393.34;6309583;22;45443;-77
2022/05/05 01:56:23;;;;;;;;;12.50;7.00;;;;;14.09;57.71;101382.31;6311242;22;46487;-77
2022/05/05 01:58:48;;;;;;;;;9.00;7.25;;;;;14.05;57.83;101378.22;6311722;22;46984;-77
2022/05/05 02:01:13;;;;;;;;;11.00;10.00;;;;;14.03;57.86;101379.31;6252450;22;45505;-75
2022/05/05 02:03:39;;;;;;;;;10.00;10.00;;;;;14.02;58.13;101381.09;6281421;22;45451;-76
2022/05/05 02:09:27;;;;;;;;;8.25;7.25;;;;;14.00;57.87;101382.16;6307335;22;45643;-78
2022/05/05 02:11:53;;;;;;;;;10.25;9.25;;;;;14.01;57.96;101381.22;6309627;22;45477;-76
2022/05/05 02:14:21;;;;;;;;;9.50;9.50;;;;;14.01;57.86;101384.69;6311165;22;45685;-75
2022/05/05 02:16:47;;;;;;;;;12.00;10.50;;;;;13.99;57.50;101391.00;6309878;22;46764;-76
2022/05/05 02:19:12;;;;;;;;;11.00;9.75;;;;;13.97;58.27;101387.66;6311149;22;46150;-77
2022/05/05 02:25:00;;;;;;;;;10.75;10.00;;;;;13.91;58.30;101377.56;6311758;22;45495;-76
2022/05/05 02:27:25;;;;;;;;;10.75;9.25;;;;;13.88;58.20;101383.88;6311606;22;45493;-76
2022/05/05 02:29:52;;;;;;;;;12.50;11.00;;;;;13.86;58.25;101384.00;6310861;22;46240;-76
2022/05/05 02:32:18;;;;;;;;;14.25;9.75;;;;;13.86;57.83;101384.00;6312223;22;45442;-78
2022/05/05 02:34:45;;;;;;;;;11.00;9.50;;;;;13.83;58.97;101380.75;6311410;22;45690;-76
2022/05/05 02:39:55;;;;;;;;;14.75;12.00;;;;;13.77;58.93;101374.13;6311952;22;45995;-76
2022/05/05 02:42:21;;;;;;;;;12.50;11.75;;;;;13.73;59.50;101375.31;6312191;22;45585;-76
2022/05/05 02:44:47;;;;;;;;;13.50;13.00;;;;;13.72;59.28;101372.78;6284028;22;45529;-77
2022/05/05 02:47:12;;;;;;;;;12.25;11.25;;;;;13.71;59.78;101361.38;6311162;22;46695;-77
2022/05/05 02:49:38;;;;;;;;;13.00;11.00;;;;;13.71;59.79;101369.28;6311543;22;45588;-77
2022/05/05 02:52:07;;;;;;;;;14.00;12.25;;;;;13.73;59.58;101372.66;6311016;22;45587;-74
2022/05/05 02:54:47;;;;;;;;;16.75;14.50;;;;;13.70;60.08;101362.38;6312265;22;45433;-75
2022/05/05 02:57:13;;;;;;;;;13.00;11.25;;;;;13.71;60.18;101371.94;6311557;22;47370;-77
2022/05/05 02:59:38;;;;;;;;;16.75;12.75;;;;;13.72;60.38;101373.63;6311892;22;45529;-76
2022/05/05 03:02:04;;;;;;;;;16.25;13.00;;;;;13.72;60.75;101367.50;6311257;22;45579;-77
2022/05/05 03:04:29;;;;;;;;;13.00;12.00;;;;;13.68;60.65;101366.91;6283212;22;45463;-76
2022/05/05 03:10:16;;;;;;;;;10.75;10.00;;;;;13.64;60.93;101383.88;6307009;22;46203;-76
2022/05/05 03:12:42;;;;;;;;;15.25;13.50;;;;;13.60;61.28;101382.41;6284164;22;45643;-76
2022/05/05 03:15:08;;;;;;;;;11.25;10.00;;;;;13.55;61.82;101368.72;6311678;22;45533;-76
2022/05/05 03:17:33;;;;;;;;;11.50;11.25;;;;;13.53;62.48;101375.06;6311494;22;46473;-76
2022/05/05 03:19:59;;;;;;;;;14.50;12.50;;;;;13.48;61.52;101378.00;6311390;22;45607;-76
2022/05/05 03:22:24;;;;;;;;;10.75;9.50;;;;;13.51;62.08;101376.94;6311140;22;45817;-76
2022/05/05 03:24:50;;;;;;;;;11.50;11.25;;;;;13.46;61.83;101374.63;6304367;22;45548;-76
2022/05/05 03:27:15;;;;;;;;;11.25;10.50;;;;;13.43;62.12;101367.81;6301950;22;46503;-76
2022/05/05 03:29:41;;;;;;;;;11.00;10.25;;;;;13.45;62.19;101375.56;6304085;22;46384;-76
2022/05/05 03:32:07;;;;;;;;;16.00;12.00;;;;;13.40;62.40;101373.28;6304746;22;45852;-77
2022/05/05 03:34:32;;;;;;;;;12.50;11.25;;;;;13.38;62.32;101377.81;6304179;22;45403;-76
2022/05/05 03:40:20;;;;;;;;;15.75;11.25;;;;;13.29;62.78;101378.44;6304598;22;45602;-77
2022/05/05 03:42:45;;;;;;;;;14.50;11.50;;;;;13.28;62.53;101381.22;6306413;22;45537;-75
2022/05/05 03:45:11;;;;;;;;;11.50;10.00;;;;;13.24;62.57;101374.47;6277186;22;45779;-78
2022/05/05 03:47:36;;;;;;;;;12.00;12.00;;;;;13.23;63.02;101381.50;6304391;22;46537;-75
2022/05/05 03:50:01;;;;;;;;;10.50;9.25;;;;;13.23;62.98;101391.19;6279527;22;47949;-78
2022/05/05 03:55:49;;;;;;;;;12.75;12.75;;;;;13.13;63.39;101398.03;6304583;22;45518;-75
2022/05/05 03:58:14;;;;;;;;;14.50;10.50;;;;;13.08;62.89;101384.34;6276003;22;47514;-76
2022/05/05 04:00:39;;;;;;;;;16.25;12.25;;;;;13.10;63.54;101399.06;6305407;22;45955;-77
2022/05/05 04:05:49;;;;;;;;;10.50;9.75;;;;;13.06;63.58;101386.25;6312703;22;45514;-75
2022/05/05 04:08:14;;;;;;;;;12.00;11.00;;;;;13.05;63.72;101390.66;6311115;22;45698;-77
2022/05/05 04:10:40;;;;;;;;;11.25;10.75;;;;;13.07;63.36;101407.16;6307116;22;46097;-77
2022/05/05 04:13:05;;;;;;;;;13.50;12.25;;;;;12.99;63.61;101386.66;6310063;22;45486;-77
2022/05/05 04:15:33;;;;;;;;;10.50;10.00;;;;;12.99;64.06;101393.72;6304198;22;45708;-77
2022/05/05 04:18:00;;;;;;;;;10.75;9.50;;;;;12.98;63.64;101392.88;6303789;22;46669;-78
2022/05/05 04:20:25;;;;;;;;;10.50;9.75;;;;;12.99;63.72;101391.06;6304981;22;46487;-77
2022/05/05 04:26:14;;;;;;;;;12.75;12.00;;;;;12.98;63.48;101402.53;6303697;22;45548;-78
2022/05/05 04:28:42;;;;;;;;;15.00;11.00;;;;;12.92;63.92;101395.91;6305230;22;46089;-78
2022/05/05 04:31:11;;;;;;;;;14.00;11.50;;;;;12.90;63.86;101415.38;6278223;22;47179;-77
2022/05/05 04:33:37;;;;;;;;;18.00;16.25;;;;;12.86;64.24;101411.25;6304775;22;45407;-77
2022/05/05 04:36:03;;;;;;;;;8.75;8.50;;;;;12.83;64.06;101414.94;6303694;22;45446;-77
2022/05/05 04:38:28;;;;;;;;;13.00;10.75;;;;;12.81;64.60;101421.25;6278331;22;47392;-78
2022/05/05 04:40:54;;;;;;;;;14.25;13.00;;;;;12.81;64.44;101426.50;6304924;22;45529;-77
2022/05/05 04:43:20;;;;;;;;;14.25;11.50;;;;;12.75;64.50;101413.78;6303512;22;45608;-76
2022/05/05 04:45:45;;;;;;;;;15.25;14.75;;;;;12.73;64.79;101420.94;6303834;22;45415;-76
2022/05/05 04:48:11;;;;;;;;;14.50;10.50;;;;;12.66;64.94;101425.75;6303046;22;46526;-77
2022/05/05 04:50:36;;;;;;;;;17.50;15.75;;;;;12.64;65.17;101417.13;6302637;22;45618;-77
2022/05/05 04:56:26;;;;;;;;;19.00;16.50;;;;;12.52;65.60;101421.41;6303573;22;45463;-78
2022/05/05 04:58:51;;;;;;;;;19.50;16.50;;;;;12.50;65.52;101431.19;6275745;22;47361;-77
2022/05/05 05:01:17;;;;;;;;;16.00;14.25;;;;;12.47;65.95;101418.22;6304171;22;46486;-76
2022/05/05 05:03:47;;;;;;;;;20.25;19.00;;;;;12.46;66.19;101429.72;6304130;22;45525;-77
2022/05/05 05:06:13;;;;;;;;;18.75;15.50;;;;;12.46;66.13;101442.84;6304195;22;45460;-78
2022/05/05 05:08:39;;;;;;;;;20.75;18.75;;;;;12.39;66.55;101428.41;6276339;22;45472;-78
2022/05/05 05:11:10;;;;;;;;;22.00;20.75;;;;;12.40;66.71;101434.53;6303467;22;45442;-78
2022/05/05 05:13:36;;;;;;;;;21.50;19.25;;;;;12.36;66.77;101425.16;6303812;22;45735;-77
2022/05/05 05:16:02;;;;;;;;;18.50;16.25;;;;;12.41;67.13;101441.47;6303843;22;45557;-75
2022/05/05 05:18:27;;;;;;;;;17.25;16.50;;;;;12.39;67.20;101417.06;6302838;22;45473;-78
2022/05/05 05:20:53;;;;;;;;;21.50;17.00;;;;;12.39;66.56;101419.69;6302739;22;46041;-78
2022/05/05 05:26:40;;;;;;;;;20.25;17.25;;;;;12.61;66.67;101448.88;6303703;22;45549;-76
2022/05/05 05:29:06;;;;;;;;;20.50;18.25;;;;;12.65;66.90;101442.47;6302738;22;46514;-76
2022/05/05 05:31:31;;;;;;;;;22.50;21.75;;;;;12.70;66.73;101445.63;6275072;22;47176;-77
2022/05/05 05:33:57;;;;;;;;;27.25;19.50;;;;;12.72;66.94;101454.28;6303343;22;45512;-77
2022/05/05 05:36:22;;;;;;;;;24.00;19.50;;;;;12.73;66.90;101457.75;6302436;22;45825;-78
2022/05/05 05:38:48;;;;;;;;;24.00;21.00;;;;;12.72;67.41;101454.28;6303563;22;46381;-78
2022/05/05 05:41:16;;;;;;;;;28.00;22.00;;;;;12.73;67.17;101461.22;6302889;22;46363;-78
2022/05/05 05:43:41;;;;;;;;;22.75;20.50;;;;;12.72;67.29;101464.78;6302948;22;45617;-75
2022/05/05 05:46:07;;;;;;;;;25.00;19.75;;;;;12.71;67.62;101454.38;6303656;22;45553;-75
2022/05/05 05:48:32;;;;;;;;;24.75;21.50;;;;;12.73;67.56;101469.09;6275265;22;46726;-74
2022/05/05 05:50:58;;;;;;;;;22.75;21.50;;;;;12.73;67.79;101461.22;6304492;22;45646;-75
2022/05/05 05:56:45;;;;;;;;;31.50;22.50;;;;;12.83;68.03;101462.28;6303170;22;45534;-77
2022/05/05 05:59:10;;;;;;;;;29.25;27.25;;;;;12.86;67.84;101463.84;6303131;22;45524;-78
2022/05/05 06:04:20;;;;;;;;;23.25;21.50;;;;;12.89;68.02;101463.66;6302239;22;45929;-78
2022/05/05 06:06:45;;;;;;;;;28.25;25.00;;;;;12.88;68.11;101456.72;6303413;22;45393;-77
2022/05/05 06:09:10;;;;;;;;;28.00;22.25;;;;;12.96;67.69;101464.91;6302927;22;46425;-80
2022/05/05 06:11:36;;;;;;;;;35.25;25.25;;;;;12.98;68.07;101463.88;6269584;22;48255;-79
2022/05/05 06:14:04;;;;;;;;;28.75;26.00;;;;;12.99;67.95;101456.84;6269604;22;45539;-78
2022/05/05 06:16:29;;;;;;;;;26.50;25.00;;;;;13.09;67.97;101462.31;6272065;22;45443;-79
2022/05/05 06:18:55;;;;;;;;;26.75;25.00;;;;;13.11;67.70;101458.66;6271838;22;45809;-78
2022/05/05 06:21:20;;;;;;;;;26.75;23.50;;;;;13.17;67.65;101462.69;6270121;22;46117;-78
2022/05/05 06:27:07;;;;;;;;;28.75;21.75;;;;;13.26;67.51;101481.31;6271458;22;45564;-78
2022/05/05 06:29:33;;;;;;;;;28.75;25.75;;;;;13.24;67.71;101480.56;6269091;22;47532;-77
2022/05/05 06:31:58;;;;;;;;;26.00;23.75;;;;;13.26;67.58;101486.56;6271730;22;45591;-78
2022/05/05 06:34:23;;;;;;;;;23.00;20.25;;;;;13.25;67.42;101487.50;6271365;22;45557;-77
2022/05/05 06:36:49;;;;;;;;;21.75;21.00;;;;;13.24;67.25;101477.94;6271918;22;45670;-78
2022/05/05 06:42:45;;;;;;;;;26.00;20.50;;;;;13.31;67.75;101481.84;6270460;22;45628;-77
2022/05/05 06:45:11;;;;;;;;;27.00;25.50;;;;;13.35;67.58;101493.00;6270803;22;45841;-77
2022/05/05 06:47:36;;;;;;;;;23.00;21.25;;;;;13.39;67.42;101494.47;6269282;22;45851;-77
2022/05/05 06:50:02;;;;;;;;;29.50;25.25;;;;;13.32;67.56;101475.63;6269155;22;46906;-76
2022/05/05 06:52:28;;;;;;;;;22.50;19.50;;;;;13.41;67.56;101482.88;6271483;22;45712;-78
2022/05/05 06:54:53;;;;;;;;;28.75;24.50;;;;;13.45;67.47;101492.25;6271535;22;45525;-78
2022/05/05 06:57:19;;;;;;;;;29.25;27.25;;;;;13.51;67.63;101491.00;6271989;22;45584;-79
2022/05/05 06:59:47;;;;;;;;;24.25;16.75;;;;;13.60;67.48;101493.00;6271344;22;46359;-79
2022/05/05 07:02:12;;;;;;;;;26.50;20.75;;;;;13.66;66.90;101499.59;6271156;22;45972;-77
2022/05/05 07:07:22;;;;;;;;;24.75;23.25;;;;;13.70;67.36;101499.31;6271236;22;45739;-77
2022/05/05 07:12:32;;;;;;;;;28.50;27.25;;;;;13.81;66.92;101520.47;6302147;22;46073;-77
2022/05/05 07:14:59;;;;;;;;;31.25;25.50;;;;;13.82;67.01;101500.22;6302253;22;45389;-77
2022/05/05 07:17:25;;;;;;;;;26.75;24.25;;;;;13.90;66.78;101504.97;6275342;22;45782;-80
2022/05/05 07:19:52;;;;;;;;;30.25;27.25;;;;;13.94;66.68;101515.16;6303632;22;45584;-82
2022/05/05 07:22:18;;;;;;;;;28.00;24.50;;;;;14.01;66.55;101520.84;6304144;22;46095;-80
2022/05/05 07:24:43;;;;;;;;;29.00;23.00;;;;;14.00;66.24;101517.38;6303941;22;45409;-80
2022/05/05 07:27:10;;;;;;;;;27.75;23.50;;;;;13.93;66.45;101508.22;6307442;22;45427;-79
2022/05/05 07:29:37;;;;;;;;;28.75;23.00;;;;;13.98;66.75;101521.91;6307912;22;45621;-84
2022/05/05 07:32:03;;;;;;;;;25.75;23.00;;;;;14.02;66.44;101520.75;6310312;22;45434;-84
2022/05/05 07:34:29;;;;;;;;;30.50;28.25;;;;;13.95;66.19;101503.69;6311613;22;45407;-87
2022/05/05 07:36:54;;;;;;;;;26.50;23.00;;;;;14.05;66.19;101528.44;6310192;22;45594;-85
2022/05/05 07:42:42;;;;;;;;;24.75;20.75;;;;;14.08;65.90;101503.66;6305178;22;45986;-83
2022/05/05 07:45:08;;;;;;;;;22.75;20.00;;;;;14.18;65.59;101521.34;6276293;22;45604;-86
2022/05/05 07:47:34;;;;;;;;;30.00;22.75;;;;;14.15;65.80;101521.53;6305073;22;45418;-85
2022/05/05 07:50:00;;;;;;;;;23.25;21.00;;;;;14.22;65.31;101528.06;6304721;22;46347;-83
2022/05/05 07:52:26;;;;;;;;;21.00;19.50;;;;;14.29;65.44;101518.78;6311650;22;45877;-84
2022/05/05 07:58:13;;;;;;;;;23.75;22.25;;;;;14.47;65.04;101519.25;6312209;22;45415;-85
2022/05/05 08:00:38;;;;;;;;;26.25;21.25;;;;;14.56;64.60;101523.88;6283557;22;47341;-83
2022/05/05 08:03:03;;;;;;;;;27.00;24.75;;;;;14.63;64.31;101535.66;6311360;22;45504;-87
2022/05/05 08:05:29;;;;;;;;;25.50;22.00;;;;;14.72;64.30;101533.31;6312273;22;45458;-83
2022/05/05 08:07:54;;;;;;;;;21.00;19.25;;;;;14.68;63.95;101517.69;6283624;22;45454;-83
2022/05/05 08:10:20;;;;;;;;;24.25;22.75;;;;;14.69;64.04;101518.53;6311393;22;45593;-83
2022/05/05 08:12:47;;;;;;;;;23.50;21.75;;;;;14.85;63.84;101540.19;6311900;22;45363;-81
2022/05/05 08:15:14;;;;;;;;;22.50;21.00;;;;;14.91;63.58;101531.81;6283472;22;45609;-86
2022/05/05 08:17:39;;;;;;;;;26.50;23.25;;;;;14.93;63.73;101529.91;6312401;22;45486;-82
2022/05/05 08:20:07;;;;;;;;;31.25;27.00;;;;;15.06;63.19;101543.03;6311896;22;47326;-85
2022/05/05 08:22:33;;;;;;;;;28.25;24.25;;;;;15.11;63.14;101541.72;6312003;22;46185;-83
2022/05/05 08:28:29;;;;;;;;;29.25;26.25;;;;;15.17;62.92;101534.31;6312246;22;45545;-82
2022/05/05 08:30:56;;;;;;;;;33.50;26.00;;;;;15.22;62.35;101526.91;6312478;22;46514;-83
2022/05/05 08:33:23;;;;;;;;;25.75;23.00;;;;;15.26;62.20;101544.19;6311999;22;45957;-84
2022/05/05 08:35:49;;;;;;;;;23.00;21.50;;;;;15.31;61.93;101550.78;6312371;22;45391;-83
2022/05/05 08:38:17;;;;;;;;;23.00;22.00;;;;;15.25;61.86;101530.13;6312576;22;45454;-84
2022/05/05 08:40:43;;;;;;;;;23.00;21.50;;;;;15.39;61.70;101544.91;6284763;22;47387;-89
2022/05/05 08:43:09;;;;;;;;;26.75;22.25;;;;;15.32;61.52;101526.06;6313250;22;45610;-85
2022/05/05 08:45:37;;;;;;;;;25.50;24.00;;;;;15.52;61.87;101546.53;6312056;22;45520;-83
2022/05/05 08:48:07;;;;;;;;;25.25;23.50;;;;;15.57;61.28;101555.91;6314016;22;45652;-82
2022/05/05 08:50:35;;;;;;;;;21.75;19.75;;;;;15.63;61.19;101550.16;6283601;22;47777;-79
2022/05/05 08:53:02;;;;;;;;;25.75;23.50;;;;;15.66;61.00;101540.19;6311451;22;46103;-81
2022/05/05 08:55:29;;;;;;;;;26.50;23.00;;;;;15.77;60.99;101548.13;6284050;22;45808;-84
2022/05/05 08:57:55;;;;;;;;;22.75;20.50;;;;;15.84;60.23;101553.78;6283915;22;45392;-83
2022/05/05 09:00:20;;;;;;;;;21.75;21.25;;;;;15.92;60.14;101557.50;6313722;22;45497;-84
2022/05/05 09:02:51;;;;;;;;;23.25;17.50;;;;;15.88;59.87;101537.56;6285988;22;48250;-83
2022/05/05 09:05:42;;;;;;;;;21.75;19.75;;;;;16.08;59.87;101556.31;6314556;22;45542;-83
2022/05/05 09:08:12;;;;;;;;;26.25;21.75;;;;;16.10;59.79;101547.28;6311799;22;45504;-84
2022/05/05 09:10:45;;;;;;;;;25.75;20.75;;;;;16.28;59.58;101559.06;6313578;22;46876;-79
2022/05/05 09:13:10;;;;;;;;;21.25;20.75;;;;;16.38;59.25;101553.84;6314907;22;46279;-79
2022/05/05 09:15:40;;;;;;;;;24.75;20.50;;;;;16.45;58.94;101559.50;6313853;22;45402;-79
2022/05/05 09:18:17;;;;;;;;;22.50;21.00;;;;;16.54;58.88;101562.25;6315209;22;45621;-80
2022/05/05 09:20:43;;;;;;;;;20.00;18.25;;;;;16.54;59.04;101551.66;6317495;22;45536;-81
2022/05/05 09:23:10;;;;;;;;;20.75;20.00;;;;;16.57;58.81;101564.63;6315100;22;46307;-81
2022/05/05 09:25:48;;;;;;;;;20.25;19.25;;;;;16.54;58.54;101554.31;6312956;22;45590;-76
2022/05/05 09:28:22;;;;;;;;;21.50;19.75;;;;;16.56;58.49;101562.13;6316002;22;45590;-81
2022/05/05 09:30:49;;;;;;;;;20.75;19.00;;;;;16.56;58.19;101554.19;6313235;22;46693;-81
2022/05/05 09:33:35;;;;;;;;;17.00;16.00;;;;;16.59;57.86;101559.25;6312277;22;45524;-79
2022/05/05 09:36:12;;;;;;;;;15.50;15.50;;;;;16.65;57.65;101553.47;6311053;22;45657;-83
2022/05/05 09:38:50;;;;;;;;;14.50;13.50;;;;;16.69;57.17;101552.25;6311169;22;45493;-82
2022/05/05 09:41:19;;;;;;;;;14.50;13.50;;;;;16.77;56.93;101563.06;6311529;22;46278;-81
2022/05/05 09:43:45;;;;;;;;;16.00;12.00;;;;;16.85;56.45;101563.25;6310306;22;46151;-81
2022/05/05 09:46:36;;;;;;;;;15.25;13.75;;;;;16.96;55.98;101570.31;6310851;22;45442;-81
2022/05/05 09:49:09;;;;;;;;;13.75;13.50;;;;;17.02;55.57;101557.41;6302447;22;45842;-75
2022/05/05 09:51:37;;;;;;;;;13.75;13.75;;;;;17.06;55.23;101556.19;6306432;22;47380;-79
2022/05/05 09:59:42;;;;;;;;;10.25;9.75;;;;;17.35;52.98;101563.50;6302863;22;45557;-82
2022/05/05 10:05:17;;;;;;;;;10.00;9.50;;;;;17.37;52.30;101566.88;6302724;22;45770;-78
2022/05/05 10:07:45;;;;;;;;;9.25;9.25;;;;;17.41;52.90;101573.59;6302974;22;45423;-80
2022/05/05 10:10:14;;;;;;;;;11.00;9.50;;;;;17.36;52.45;101563.38;6301655;22;45741;-79
2022/05/05 10:12:40;;;;;;;;;9.25;8.25;;;;;17.35;52.54;101556.41;6306752;22;45527;-78
2022/05/05 10:15:06;;;;;;;;;10.25;8.75;;;;;17.41;52.89;101563.84;6305001;22;45883;-80
2022/05/05 10:17:34;;;;;;;;;9.00;8.00;;;;;17.43;52.13;101561.91;6302650;22;45636;-79
2022/05/05 10:20:00;;;;;;;;;9.00;8.00;;;;;17.46;52.22;101555.50;6303878;22;45647;-79
2022/05/05 10:22:54;;;;;;;;;8.75;8.00;;;;;17.49;52.43;101563.19;6274549;22;47415;-79
2022/05/05 10:25:28;;;;;;;;;7.50;7.00;;;;;17.56;52.11;101565.19;6305543;22;45966;-80
2022/05/05 10:27:57;;;;;;;;;10.50;10.00;;;;;17.59;51.93;101572.03;6309065;22;45812;-79
2022/05/05 10:30:35;;;;;;;;;8.50;7.50;;;;;17.62;51.22;101561.19;6305005;22;45518;-79
2022/05/05 10:33:02;;;;;;;;;6.50;6.50;;;;;17.55;50.06;101563.50;6302120;22;46386;-77
2022/05/05 10:35:37;;;;;;;;;6.75;6.00;;;;;17.57;49.80;101564.22;6302766;22;45530;-79
2022/05/05 10:38:03;;;;;;;;;12.25;12.25;;;;;17.50;50.07;101559.56;6309939;22;45576;-79
2022/05/05 10:40:43;;;;;;;;;9.75;9.75;;;;;17.48;50.35;101559.72;6302455;22;45507;-79
2022/05/05 10:43:09;;;;;;;;;7.75;6.75;;;;;17.47;50.07;101558.03;6301873;22;46663;-79
2022/05/05 10:45:35;;;;;;;;;6.75;6.00;;;;;17.48;50.52;101551.75;6302435;22;45553;-79
2022/05/05 10:50:33;;;;;;;;;10.25;9.75;;;;;17.50;50.60;101563.06;6302193;22;45625;-78
2022/05/05 10:53:00;;;;;;;;;11.00;8.25;;;;;17.58;50.40;101552.66;6275316;22;46429;-77
2022/05/05 10:55:52;;;;;;;;;9.50;9.00;;;;;17.63;50.86;101556.75;6303088;22;45837;-79
2022/05/05 10:58:55;;;;;;;;;11.25;8.75;;;;;17.71;49.98;101555.09;6274583;22;45665;-78
2022/05/05 11:01:21;;;;;;;;;8.25;8.00;;;;;17.78;49.70;101540.38;6303567;22;45526;-77
2022/05/05 11:04:07;;;;;;;;;8.75;7.75;;;;;17.86;49.52;101542.38;6303061;22;45750;-78
2022/05/05 11:06:34;;;;;;;;;8.00;7.25;;;;;17.90;49.43;101539.31;6303345;22;45855;-78
2022/05/05 11:12:24;;;;;;;;;8.75;7.50;;;;;17.98;49.05;101546.56;6297624;22;45984;-80
2022/05/05 11:23:43;;;;;;;;;4.25;3.25;;;;;17.92;48.11;101547.94;6302948;22;45447;-77
2022/05/05 11:29:31;;;;;;;;;8.00;5.75;;;;;17.90;48.16;101554.38;6302958;22;46016;-79
2022/05/05 11:32:02;;;;;;;;;5.50;5.50;;;;;17.86;47.83;101545.00;6303358;22;45645;-78
2022/05/05 11:34:34;;;;;;;;;5.50;5.25;;;;;17.87;48.06;101562.56;6302862;22;45716;-78
2022/05/05 11:37:01;;;;;;;;;6.50;6.00;;;;;17.90;48.42;101568.47;6274573;22;47161;-79
2022/05/05 11:39:31;;;;;;;;;7.00;7.00;;;;;17.91;48.36;101546.28;6303515;22;45530;-78
2022/05/05 11:42:04;;;;;;;;;4.25;4.00;;;;;17.98;48.38;101543.91;6303455;22;45782;-78
2022/05/05 11:44:30;;;;;;;;;4.75;4.75;;;;;18.01;47.82;101551.63;6303511;22;45602;-78
2022/05/05 11:47:00;;;;;;;;;6.00;6.00;;;;;17.94;48.22;101535.41;6302929;22;45706;-78
2022/05/05 11:49:32;;;;;;;;;6.00;5.00;;;;;18.02;48.05;101548.84;6302900;22;46147;-77
2022/05/05 11:52:01;;;;;;;;;6.25;5.75;;;;;18.08;47.49;101550.13;6303182;22;45846;-79
2022/05/05 11:54:29;;;;;;;;;6.25;6.25;;;;;18.09;47.50;101541.16;6302899;22;45623;-78
2022/05/05 11:56:55;;;;;;;;;7.00;6.00;;;;;18.13;47.94;101537.31;6303172;22;45799;-78
2022/05/05 12:02:21;;;;;;;;;5.25;5.25;;;;;18.06;47.50;101517.59;6302453;22;45521;-79
2022/05/05 12:04:56;;;;;;;;;7.00;6.00;;;;;18.25;47.80;101538.84;6303932;22;45586;-79
2022/05/05 12:07:23;;;;;;;;;6.00;5.50;;;;;18.28;47.40;101541.25;6303790;22;45750;-78
2022/05/05 12:09:54;;;;;;;;;5.00;4.25;;;;;18.35;47.53;101539.69;6305262;22;46168;-77
2022/05/05 12:12:22;;;;;;;;;5.00;5.00;;;;;18.38;47.42;101555.38;6302486;22;45727;-78
2022/05/05 12:14:49;;;;;;;;;6.00;5.00;;;;;18.41;46.45;101547.13;6303513;22;45600;-76
2022/05/05 12:17:18;;;;;;;;;3.25;3.00;;;;;18.36;46.52;101536.09;6302948;22;46328;-78
2022/05/05 12:19:46;;;;;;;;;5.75;5.50;;;;;18.50;46.53;101547.28;6302724;22;45646;-78
2022/05/05 12:22:12;;;;;;;;;6.00;5.00;;;;;18.48;46.80;101539.47;6303128;22;45521;-80
2022/05/05 12:24:44;;;;;;;;;6.00;6.00;;;;;18.52;47.18;101534.72;6276135;22;46058;-76
2022/05/05 12:27:12;;;;;;;;;6.00;5.00;;;;;18.48;46.60;101530.66;6305751;22;45521;-80
2022/05/05 12:29:41;;;;;;;;;6.00;5.00;;;;;18.53;46.68;101528.44;6306245;22;45642;-77
2022/05/05 12:32:11;;;;;;;;;5.00;5.00;;;;;18.51;46.25;101527.75;6305804;22;45463;-77
2022/05/05 12:34:37;;;;;;;;;4.00;4.00;;;;;18.52;45.85;101537.38;6279509;22;45393;-76
2022/05/05 12:37:12;;;;;;;;;4.50;4.00;;;;;18.55;45.79;101534.47;6305587;22;46463;-78
2022/05/05 12:40:01;;;;;;;;;4.25;4.25;;;;;18.60;45.79;101541.06;6303853;22;45806;-77
2022/05/05 12:42:43;;;;;;;;;5.00;4.00;;;;;18.66;45.59;101529.06;6308561;22;45581;-79
2022/05/05 12:45:17;;;;;;;;;5.50;5.50;;;;;18.70;45.77;101533.94;6304982;22;45534;-79
2022/05/05 12:47:47;;;;;;;;;4.75;4.00;;;;;18.72;45.24;101534.66;6308203;22;46429;-78
2022/05/05 12:50:41;;;;;;;;;4.00;4.00;;;;;18.84;45.21;101537.97;6304357;22;45455;-77
2022/05/05 13:01:34;;;;;;;;;6.00;4.25;;;;;19.00;44.14;101530.28;6303424;22;45874;-78
2022/05/05 13:04:05;;;;;;;;;6.00;4.00;;;;;19.08;44.07;101527.78;6307880;22;45433;-78
2022/05/05 13:06:31;;;;;;;;;4.00;3.25;;;;;19.14;44.07;101540.50;6307762;22;45583;-79
2022/05/05 13:08:57;;;;;;;;;5.00;4.00;;;;;19.14;42.70;101518.41;6306835;22;46463;-80
2022/05/05 13:11:23;;;;;;;;;4.00;3.00;;;;;19.22;43.06;101526.50;6278145;22;47829;-79
2022/05/05 13:13:51;;;;;;;;;2.50;2.25;;;;;19.28;42.69;101515.28;6302997;22;45388;-80
2022/05/05 13:16:16;;;;;;;;;4.00;3.75;;;;;19.31;42.64;101530.13;6303563;22;45698;-79
2022/05/05 13:18:42;;;;;;;;;4.00;3.00;;;;;19.32;42.20;101519.38;6274445;22;47390;-78
2022/05/05 13:21:08;;;;;;;;;3.75;3.00;;;;;19.31;43.00;101517.69;6302729;22;46437;-78
2022/05/05 13:23:35;;;;;;;;;4.00;4.00;;;;;19.37;42.03;101525.09;6302616;22;45502;-80